createdAt,value
2022-10-01T00:02:11.632Z,100304.19
2022-10-01T00:04:40.629Z,100300.97
2022-10-01T00:07:10.874Z,100307.81
2022-10-01T00:09:39.811Z,100317.53
2022-10-01T00:12:08.728Z,100304.88
2022-10-01T00:14:38.452Z,100287.09
2022-10-01T00:17:07.624Z,100282.09
2022-10-01T00:19:34.253Z,100276.31
2022-10-01T00:22:00.762Z,100289.47
2022-10-01T00:24:27.886Z,100260.75
2022-10-01T00:26:54.399Z,100259.41
2022-10-01T00:29:20.906Z,100245.00
2022-10-01T00:31:47.748Z,100244.13
2022-10-01T00:34:15.475Z,100240.06
2022-10-01T00:36:42.301Z,100254.44
2022-10-01T00:39:10.880Z,100249.66
2022-10-01T00:41:39.563Z,100250.16
2022-10-01T00:44:28.051Z,100247.22
2022-10-01T00:46:57.566Z,100246.09
2022-10-01T00:49:29.190Z,100241.09
2022-10-01T00:51:59.313Z,100237.03
2022-10-01T00:54:33.975Z,100227.63
2022-10-01T00:57:05.358Z,100232.56
2022-10-01T00:59:34.711Z,100234.78
2022-10-01T01:02:01.284Z,100220.97
2022-10-01T01:04:27.997Z,100217.88
2022-10-01T01:07:01.323Z,100210.72
2022-10-01T01:09:37.030Z,100206.41
2022-10-01T01:12:06.277Z,100182.84
2022-10-01T01:15:11.594Z,100165.72
2022-10-01T01:17:52.489Z,100161.47
2022-10-01T01:20:18.920Z,100184.38
2022-10-01T01:22:55.904Z,100170.88
2022-10-01T01:25:34.155Z,100171.75
2022-10-01T01:28:24.333Z,100169.19
2022-10-01T01:31:00.548Z,100184.91
2022-10-01T01:33:31.038Z,100138.09
2022-10-01T01:36:06.196Z,100132.94
2022-10-01T01:38:54.922Z,100144.44
2022-10-01T01:41:25.600Z,100124.66
2022-10-01T01:43:59.809Z,100137.75
2022-10-01T01:46:32.048Z,100127.84
2022-10-01T01:49:01.031Z,100136.06
2022-10-01T01:51:51.128Z,100121.03
2022-10-01T01:54:19.672Z,100118.50
2022-10-01T01:56:46.593Z,100105.00
2022-10-01T01:59:16.391Z,100071.41
2022-10-01T02:01:46.602Z,100107.63
2022-10-01T02:04:21.482Z,100107.81
2022-10-01T02:06:54.190Z,100106.09
2022-10-01T02:09:31.100Z,100091.03
2022-10-01T02:12:16.008Z,100094.31
2022-10-01T02:14:59.336Z,100110.91
2022-10-01T02:17:35.282Z,100099.31
2022-10-01T02:20:08.619Z,100084.50
2022-10-01T02:22:47.174Z,100082.22
2022-10-01T02:25:17.464Z,100068.44
2022-10-01T02:27:51.527Z,100078.50
2022-10-01T02:30:18.681Z,100071.66
2022-10-01T02:32:49.892Z,100076.06
2022-10-01T02:35:19.691Z,100078.63
2022-10-01T02:37:51.851Z,100071.53
2022-10-01T02:40:26.287Z,100055.59
2022-10-01T02:43:02.687Z,100057.69
2022-10-01T02:45:35.575Z,100055.59
2022-10-01T02:48:08.841Z,100064.81
2022-10-01T02:50:44.212Z,100047.28
2022-10-01T02:53:17.510Z,100073.38
2022-10-01T02:55:46.534Z,100075.59
2022-10-01T02:58:13.116Z,100064.47
2022-10-01T03:00:39.656Z,100063.63
2022-10-01T03:03:06.212Z,100080.03
2022-10-01T03:05:32.817Z,100061.06
2022-10-01T03:07:59.290Z,100064.28
2022-10-01T03:10:25.850Z,100062.59
2022-10-01T03:12:52.416Z,100066.19
2022-10-01T03:15:20.052Z,100059.66
2022-10-01T03:17:50.914Z,100057.50
2022-10-01T03:20:17.596Z,100056.09
2022-10-01T03:22:50.079Z,100054.19
2022-10-01T03:25:17.256Z,100060.16
2022-10-01T03:27:43.987Z,100051.66
2022-10-01T03:30:14.896Z,100056.63
2022-10-01T03:32:41.463Z,100072.78
2022-10-01T03:35:13.768Z,100060.00
2022-10-01T03:37:40.255Z,100062.53
2022-10-01T03:40:09.308Z,100056.03
2022-10-01T03:42:35.802Z,100060.66
2022-10-01T03:45:02.314Z,100055.19
2022-10-01T03:47:28.786Z,100056.72
2022-10-01T03:49:55.311Z,100070.19
2022-10-01T03:52:21.851Z,100055.00
2022-10-01T03:54:48.343Z,100071.72
2022-10-01T03:57:14.913Z,100069.63
2022-10-01T03:59:42.561Z,100065.88
2022-10-01T04:02:09.159Z,100059.94
2022-10-01T04:04:37.716Z,100053.91
2022-10-01T04:07:04.270Z,100056.25
2022-10-01T04:09:30.775Z,100064.69
2022-10-01T04:11:57.381Z,100068.91
2022-10-01T04:14:23.935Z,100053.34
2022-10-01T04:16:52.502Z,100053.03
2022-10-01T04:19:21.713Z,100062.91
2022-10-01T04:21:53.099Z,100064.44
2022-10-01T04:24:19.574Z,100076.03
2022-10-01T04:26:46.075Z,100086.31
2022-10-01T04:29:14.903Z,100083.88
2022-10-01T04:31:41.474Z,100075.50
2022-10-01T04:34:08.199Z,100083.88
2022-10-01T04:36:34.698Z,100090.88
2022-10-01T04:39:03.794Z,100086.06
2022-10-01T04:41:31.990Z,100092.03
2022-10-01T04:44:00.245Z,100094.78
2022-10-01T04:46:30.203Z,100106.00
2022-10-01T04:48:57.037Z,100100.53
2022-10-01T04:51:25.839Z,100096.28
2022-10-01T04:53:55.567Z,100099.50
2022-10-01T04:56:22.291Z,100109.41
2022-10-01T04:58:49.193Z,100112.84
2022-10-01T05:01:15.779Z,100110.75
2022-10-01T05:03:42.365Z,100116.72
2022-10-01T05:06:11.246Z,100116.91
2022-10-01T05:08:38.294Z,100116.16
2022-10-01T05:11:05.088Z,100124.38
2022-10-01T05:13:32.063Z,100118.72
2022-10-01T05:15:58.931Z,100128.63
2022-10-01T05:18:25.465Z,100125.41
2022-10-01T05:20:51.983Z,100125.69
2022-10-01T05:23:21.172Z,100131.50
2022-10-01T05:25:47.672Z,100130.44
2022-10-01T05:28:22.154Z,100140.38
2022-10-01T05:30:51.739Z,100143.78
2022-10-01T05:33:18.277Z,100142.75
2022-10-01T05:35:45.014Z,100157.09
2022-10-01T05:38:11.549Z,100159.66
2022-10-01T05:40:38.026Z,100163.06
2022-10-01T05:43:04.559Z,100172.16
2022-10-01T05:45:32.466Z,100172.66
2022-10-01T05:48:00.713Z,100172.47
2022-10-01T05:50:31.357Z,100163.56
2022-10-01T05:53:00.403Z,100179.25
2022-10-01T05:55:34.500Z,100177.59
2022-10-01T05:58:05.801Z,100177.25
2022-10-01T06:00:33.707Z,100179.31
2022-10-01T06:03:02.312Z,100178.66
2022-10-01T06:05:30.656Z,100191.28
2022-10-01T06:08:00.767Z,100195.34
2022-10-01T06:10:30.643Z,100190.72
2022-10-01T06:13:05.380Z,100196.31
2022-10-01T06:15:37.966Z,100202.28
2022-10-01T06:18:06.206Z,100208.22
2022-10-01T06:20:32.906Z,100198.47
2022-10-01T06:23:02.077Z,100204.94
2022-10-01T06:25:31.240Z,100192.44
2022-10-01T06:27:59.624Z,100207.59
2022-10-01T06:30:28.941Z,100208.69
2022-10-01T06:33:06.753Z,100205.75
2022-10-01T06:35:37.034Z,100210.00
2022-10-01T06:38:06.934Z,100196.00
2022-10-01T06:40:33.454Z,100218.41
2022-10-01T06:42:59.994Z,100214.25
2022-10-01T06:45:27.637Z,100210.84
2022-10-01T06:47:59.662Z,100220.97
2022-10-01T06:50:26.370Z,100212.19
2022-10-01T06:52:55.910Z,100221.38
2022-10-01T06:55:29.074Z,100211.44
2022-10-01T06:57:58.467Z,100218.25
2022-10-01T07:00:26.374Z,100219.94
2022-10-01T07:02:55.811Z,100235.84
2022-10-01T07:05:24.444Z,100235.28
2022-10-01T07:07:54.017Z,100237.75
2022-10-01T07:10:24.553Z,100238.97
2022-10-01T07:12:51.468Z,100242.38
2022-10-01T07:15:22.675Z,100239.59
2022-10-01T07:17:50.615Z,100239.28
2022-10-01T07:20:22.208Z,100242.41
2022-10-01T07:22:58.090Z,100244.06
2022-10-01T07:25:25.597Z,100250.44
2022-10-01T07:28:04.359Z,100254.63
2022-10-01T07:30:34.461Z,100266.63
2022-10-01T07:33:02.183Z,100256.22
2022-10-01T07:35:29.697Z,100267.38
2022-10-01T07:37:56.247Z,100270.34
2022-10-01T07:40:22.849Z,100266.75
2022-10-01T07:42:54.656Z,100252.31
2022-10-01T07:45:22.800Z,100259.38
2022-10-01T07:47:57.259Z,100275.13
2022-10-01T07:50:25.377Z,100272.69
2022-10-01T07:52:56.282Z,100284.25
2022-10-01T07:55:26.541Z,100288.03
2022-10-01T07:57:58.205Z,100300.94
2022-10-01T08:00:26.668Z,100300.47
2022-10-01T08:02:56.015Z,100310.22
2022-10-01T08:05:25.514Z,100312.75
2022-10-01T08:07:52.390Z,100314.75
2022-10-01T08:10:20.334Z,100303.75
2022-10-01T08:12:47.169Z,100327.44
2022-10-01T08:15:16.799Z,100321.47
2022-10-01T08:17:43.936Z,100336.44
2022-10-01T08:20:16.214Z,100337.59
2022-10-01T08:22:42.924Z,100348.31
2022-10-01T08:25:09.975Z,100350.41
2022-10-01T08:27:37.073Z,100355.00
2022-10-01T08:30:04.650Z,100347.34
2022-10-01T08:32:33.431Z,100344.59
2022-10-01T08:35:01.345Z,100347.56
2022-10-01T08:37:29.219Z,100344.22
2022-10-01T08:39:56.568Z,100347.94
2022-10-01T08:42:28.450Z,100354.81
2022-10-01T08:44:55.234Z,100363.34
2022-10-01T08:47:31.031Z,100360.50
2022-10-01T08:50:14.462Z,100351.09
2022-10-01T08:52:52.217Z,100349.91
2022-10-01T08:55:24.519Z,100345.72
2022-10-01T08:58:00.438Z,100338.50
2022-10-01T09:00:29.341Z,100358.66
2022-10-01T09:03:00.460Z,100347.09
2022-10-01T09:05:35.226Z,100356.97
2022-10-01T09:08:15.403Z,100355.28
2022-10-01T09:10:47.566Z,100363.66
2022-10-01T09:13:33.357Z,100362.31
2022-10-01T09:16:38.738Z,100382.56
2022-10-01T09:19:31.840Z,100391.50
2022-10-01T09:22:36.032Z,100393.13
2022-10-01T09:25:21.313Z,100389.47
2022-10-01T09:27:48.520Z,100388.19
2022-10-01T09:30:24.839Z,100398.13
2022-10-01T09:33:16.139Z,100402.34
2022-10-01T09:35:54.768Z,100391.34
2022-10-01T09:38:25.587Z,100397.84
2022-10-01T09:40:56.779Z,100393.75
2022-10-01T09:43:34.644Z,100392.31
2022-10-01T09:46:15.388Z,100388.06
2022-10-01T09:49:05.013Z,100402.56
2022-10-01T09:51:45.000Z,100405.53
2022-10-01T09:54:39.034Z,100403.41
2022-10-01T09:57:24.234Z,100414.13
2022-10-01T10:00:01.649Z,100418.91
2022-10-01T10:02:35.312Z,100419.16
2022-10-01T10:05:06.455Z,100410.81
2022-10-01T10:07:35.042Z,100421.00
2022-10-01T10:10:35.655Z,100411.66
2022-10-01T10:13:35.171Z,100421.91
2022-10-01T10:16:26.918Z,100421.50
2022-10-01T10:19:02.240Z,100424.91
2022-10-01T10:21:31.897Z,100436.53
2022-10-01T10:24:00.898Z,100434.34
2022-10-01T10:26:34.001Z,100448.63
2022-10-01T10:29:02.976Z,100449.09
2022-10-01T10:31:39.775Z,100456.75
2022-10-01T10:34:17.735Z,100456.16
2022-10-01T10:36:45.971Z,100464.09
2022-10-01T10:39:34.856Z,100472.78
2022-10-01T10:42:04.091Z,100480.22
2022-10-01T10:44:36.283Z,100498.09
2022-10-01T10:47:11.711Z,100482.38
2022-10-01T10:49:47.259Z,100485.34
2022-10-01T10:52:33.434Z,100493.41
2022-10-01T10:55:02.461Z,100494.47
2022-10-01T10:57:34.025Z,100512.53
2022-10-01T11:00:06.841Z,100516.38
2022-10-01T11:02:33.851Z,100524.03
2022-10-01T11:05:12.047Z,100510.84
2022-10-01T11:07:43.244Z,100535.47
2022-10-01T11:10:46.199Z,100542.25
2022-10-01T11:13:49.634Z,100537.19
2022-10-01T11:16:29.580Z,100544.03
2022-10-01T11:19:11.362Z,100545.06
2022-10-01T11:22:04.164Z,100554.44
2022-10-01T11:24:57.120Z,100549.09
2022-10-01T11:27:38.898Z,100548.41
2022-10-01T11:30:35.536Z,100544.59
2022-10-01T11:33:19.564Z,100559.88
2022-10-01T11:36:22.265Z,100571.34
2022-10-01T11:39:13.551Z,100557.94
2022-10-01T11:41:45.329Z,100574.13
2022-10-01T11:44:30.809Z,100573.06
2022-10-01T11:47:10.232Z,100584.16
2022-10-01T11:49:52.060Z,100593.31
2022-10-01T11:52:37.637Z,100586.53
2022-10-01T11:55:34.684Z,100596.97
2022-10-01T11:58:54.928Z,100606.31
2022-10-01T12:01:24.991Z,100592.03
2022-10-01T12:03:54.390Z,100601.97
2022-10-01T12:06:28.418Z,100608.94
2022-10-01T12:09:07.890Z,100606.88
2022-10-01T12:11:52.836Z,100616.53
2022-10-01T12:15:06.934Z,100617.56
2022-10-01T12:17:46.680Z,100616.75
2022-10-01T12:20:25.564Z,100626.94
2022-10-01T12:22:56.335Z,100621.38
2022-10-01T12:25:31.212Z,100633.69
2022-10-01T12:28:01.790Z,100632.59
2022-10-01T12:30:38.666Z,100645.16
2022-10-01T12:33:34.130Z,100648.94
2022-10-01T12:36:32.567Z,100639.53
2022-10-01T12:39:34.281Z,100635.75
2022-10-01T12:42:04.164Z,100655.31
2022-10-01T12:45:20.398Z,100650.09
2022-10-01T12:48:07.773Z,100655.00
2022-10-01T12:51:02.885Z,100673.53
2022-10-01T12:53:38.768Z,100667.34
2022-10-01T12:56:21.666Z,100670.31
2022-10-01T12:59:11.965Z,100676.91
2022-10-01T13:01:57.509Z,100671.81
2022-10-01T13:04:40.439Z,100675.63
2022-10-01T13:07:29.375Z,100685.16
2022-10-01T13:10:05.061Z,100691.50
2022-10-01T13:12:43.709Z,100694.47
2022-10-01T13:15:40.879Z,100710.34
2022-10-01T13:18:52.185Z,100715.84
2022-10-01T13:21:37.136Z,100710.94
2022-10-01T13:24:19.941Z,100730.44
2022-10-01T13:27:05.693Z,100727.25
2022-10-01T13:30:12.218Z,100730.78
2022-10-01T13:32:55.594Z,100733.56
2022-10-01T13:35:34.474Z,100745.47
2022-10-01T13:38:14.549Z,100746.03
2022-10-01T13:40:44.240Z,100750.66
2022-10-01T13:43:23.386Z,100752.50
2022-10-01T13:45:52.335Z,100756.09
2022-10-01T13:48:35.282Z,100757.81
2022-10-01T13:51:13.341Z,100759.16
2022-10-01T13:53:42.839Z,100760.38
2022-10-01T13:56:13.126Z,100759.75
2022-10-01T13:58:50.280Z,100761.22
2022-10-01T14:01:21.355Z,100785.38
2022-10-01T14:04:17.518Z,100774.66
2022-10-01T14:06:51.310Z,100769.81
2022-10-01T14:09:36.550Z,100775.75
2022-10-01T14:12:30.793Z,100779.16
2022-10-01T14:15:18.653Z,100776.44
2022-10-01T14:17:55.752Z,100782.19
2022-10-01T14:20:28.975Z,100780.91
2022-10-01T14:23:21.595Z,100795.84
2022-10-01T14:25:59.315Z,100803.03
2022-10-01T14:28:39.549Z,100807.31
2022-10-01T14:31:17.453Z,100808.31
2022-10-01T14:34:06.741Z,100819.31
2022-10-01T14:36:41.995Z,100817.59
2022-10-01T14:39:30.241Z,100810.19
2022-10-01T14:41:57.992Z,100815.97
2022-10-01T14:44:30.331Z,100818.72
2022-10-01T14:47:01.146Z,100827.00
2022-10-01T14:49:32.587Z,100831.06
2022-10-01T14:52:28.599Z,100831.53
2022-10-01T14:55:09.232Z,100837.28
2022-10-01T14:57:41.927Z,100837.94
2022-10-01T15:00:26.821Z,100846.41
2022-10-01T15:03:15.151Z,100846.81
2022-10-01T15:05:43.170Z,100839.13
2022-10-01T15:08:21.186Z,100836.53
2022-10-01T15:11:00.725Z,100838.84
2022-10-01T15:13:29.796Z,100854.63
2022-10-01T15:15:59.122Z,100870.31
2022-10-01T15:18:26.619Z,100863.50
2022-10-01T15:20:59.703Z,100850.28
2022-10-01T15:23:28.873Z,100857.91
2022-10-01T15:25:58.644Z,100875.34
2022-10-01T15:28:36.877Z,100867.84
2022-10-01T15:31:06.434Z,100885.97
2022-10-01T15:33:36.185Z,100880.66
2022-10-01T15:36:05.897Z,100893.38
2022-10-01T15:38:33.644Z,100886.97
2022-10-01T15:41:26.661Z,100897.56
2022-10-01T15:43:52.320Z,100902.97
2022-10-01T15:46:31.321Z,100905.91
2022-10-01T15:49:14.773Z,100913.06
2022-10-01T15:52:14.172Z,100912.56
2022-10-01T15:54:44.772Z,100910.78
2022-10-01T15:57:23.831Z,100915.66
2022-10-01T15:59:53.439Z,100930.03
2022-10-01T16:02:25.202Z,100927.19
2022-10-01T16:04:56.687Z,100927.78
2022-10-01T16:07:29.716Z,100934.56
2022-10-01T16:09:58.366Z,100927.06
2022-10-01T16:12:27.539Z,100944.16
2022-10-01T16:14:56.831Z,100932.28
2022-10-01T16:17:30.255Z,100933.91
2022-10-01T16:20:02.788Z,100944.66
2022-10-01T16:22:33.797Z,100948.84
2022-10-01T16:25:24.986Z,100951.13
2022-10-01T16:27:58.386Z,100949.13
2022-10-01T16:30:27.024Z,100952.88
2022-10-01T16:32:54.329Z,100966.16
2022-10-01T16:35:22.126Z,100943.53
2022-10-01T16:37:53.270Z,100962.19
2022-10-01T16:40:22.160Z,100973.75
2022-10-01T16:42:52.294Z,100986.88
2022-10-01T16:45:22.702Z,100989.31
2022-10-01T16:47:49.243Z,100991.09
2022-10-01T16:50:18.643Z,101000.59
2022-10-01T16:52:48.578Z,101000.66
2022-10-01T16:55:23.040Z,101000.53
2022-10-01T16:57:50.946Z,101011.25
2022-10-01T17:00:20.192Z,101015.63
2022-10-01T17:02:46.977Z,101013.50
2022-10-01T17:05:22.697Z,101026.19
2022-10-01T17:07:49.667Z,101022.66
2022-10-01T17:10:17.971Z,101028.03
2022-10-01T17:12:52.522Z,101023.44
2022-10-01T17:15:23.261Z,101036.19
2022-10-01T17:17:53.898Z,101037.25
2022-10-01T17:20:22.108Z,101043.13
2022-10-01T17:22:51.770Z,101044.53
2022-10-01T17:25:23.794Z,101046.28
2022-10-01T17:27:50.506Z,101057.16
2022-10-01T17:30:19.527Z,101058.19
2022-10-01T17:32:46.752Z,101068.03
2022-10-01T17:35:15.061Z,101066.66
2022-10-01T17:37:42.533Z,101054.53
2022-10-01T17:40:13.666Z,101079.94
2022-10-01T17:42:44.938Z,101082.38
2022-10-01T17:45:13.817Z,101079.63
2022-10-01T17:47:45.230Z,101081.34
2022-10-01T17:50:12.602Z,101088.91
2022-10-01T17:52:39.236Z,101096.47
2022-10-01T17:55:06.568Z,101098.03
2022-10-01T17:57:33.770Z,101100.28
2022-10-01T18:00:00.511Z,101100.97
2022-10-01T18:02:41.569Z,101109.56
2022-10-01T18:05:12.183Z,101113.53
2022-10-01T18:07:39.120Z,101122.28
2022-10-01T18:10:12.550Z,101121.59
2022-10-01T18:12:39.442Z,101122.28
2022-10-01T18:15:06.478Z,101124.88
2022-10-01T18:17:33.482Z,101128.13
2022-10-01T18:20:00.362Z,101130.19
2022-10-01T18:22:28.261Z,101147.19
2022-10-01T18:24:55.115Z,101136.50
2022-10-01T18:27:21.749Z,101144.59
2022-10-01T18:29:48.253Z,101146.16
2022-10-01T18:32:24.109Z,101151.13
2022-10-01T18:35:06.302Z,101153.69
2022-10-01T18:37:46.631Z,101148.91
2022-10-01T18:40:13.028Z,101174.50
2022-10-01T18:42:45.549Z,101168.81
2022-10-01T18:45:40.628Z,101172.41
2022-10-01T18:48:25.587Z,101184.44
2022-10-01T18:51:10.273Z,101188.91
2022-10-01T18:54:24.836Z,101175.16
2022-10-01T18:57:13.164Z,101189.91
2022-10-01T18:59:57.283Z,101206.72
2022-10-01T19:02:45.836Z,101204.13
2022-10-01T19:05:38.253Z,101202.94
2022-10-01T19:08:24.601Z,101202.75
2022-10-01T19:11:18.009Z,101204.25
2022-10-01T19:14:18.714Z,101203.22
2022-10-01T19:16:59.252Z,101211.94
2022-10-01T19:19:52.310Z,101211.75
2022-10-01T19:22:24.707Z,101207.59
2022-10-01T19:24:57.936Z,101211.88
2022-10-01T19:27:54.138Z,101223.34
2022-10-01T19:30:20.811Z,101220.09
2022-10-01T19:32:59.977Z,101217.34
2022-10-01T19:35:31.892Z,101223.31
2022-10-01T19:38:06.096Z,101216.75
2022-10-01T19:40:51.391Z,101217.78
2022-10-01T19:43:26.846Z,101228.41
2022-10-01T19:46:17.454Z,101222.31
2022-10-01T19:48:49.221Z,101236.59
2022-10-01T19:51:24.146Z,101237.06
2022-10-01T19:54:00.040Z,101228.09
2022-10-01T19:56:35.030Z,101248.84
2022-10-01T19:59:10.792Z,101254.66
2022-10-01T20:01:53.094Z,101254.28
2022-10-01T20:04:44.440Z,101260.25
2022-10-01T20:07:17.029Z,101259.72
2022-10-01T20:09:56.301Z,101254.69
2022-10-01T20:12:36.139Z,101247.09
2022-10-01T20:15:30.806Z,101257.22
2022-10-01T20:18:28.606Z,101275.53
2022-10-01T20:20:58.246Z,101278.63
2022-10-01T20:23:55.882Z,101273.22
2022-10-01T20:26:57.565Z,101278.94
2022-10-01T20:30:14.071Z,101289.31
2022-10-01T20:33:00.954Z,101287.63
2022-10-01T20:35:34.101Z,101292.06
2022-10-01T20:38:22.778Z,101285.72
2022-10-01T20:41:00.114Z,101291.69
2022-10-01T20:43:33.647Z,101298.03
2022-10-01T20:46:09.137Z,101296.47
2022-10-01T20:48:39.161Z,101296.78
2022-10-01T20:51:14.637Z,101295.66
2022-10-01T20:53:53.020Z,101310.06
2022-10-01T20:56:42.864Z,101319.59
2022-10-01T20:59:40.477Z,101295.75
2022-10-01T21:02:32.865Z,101309.13
2022-10-01T21:05:09.293Z,101309.13
2022-10-01T21:07:51.293Z,101320.09
2022-10-01T21:10:33.409Z,101312.34
2022-10-01T21:13:11.759Z,101312.63
2022-10-01T21:15:49.587Z,101306.28
2022-10-01T21:18:22.416Z,101316.06
2022-10-01T21:21:19.980Z,101325.88
2022-10-01T21:24:01.287Z,101325.00
2022-10-01T21:26:58.430Z,101327.03
2022-10-01T21:29:54.989Z,101332.34
2022-10-01T21:32:30.227Z,101310.97
2022-10-01T21:35:15.470Z,101341.44
2022-10-01T21:37:55.556Z,101326.50
2022-10-01T21:40:47.554Z,101334.94
2022-10-01T21:43:44.601Z,101330.78
2022-10-01T21:46:37.656Z,101342.47
2022-10-01T21:49:50.241Z,101346.50
2022-10-01T21:52:47.700Z,101351.00
2022-10-01T21:55:14.132Z,101347.56
2022-10-01T21:57:48.321Z,101345.50
2022-10-01T22:00:23.171Z,101349.25
2022-10-01T22:02:52.411Z,101353.19
2022-10-01T22:05:37.964Z,101359.66
2022-10-01T22:08:40.475Z,101363.41
2022-10-01T22:11:17.175Z,101363.56
2022-10-01T22:13:54.908Z,101371.78
2022-10-01T22:16:26.242Z,101377.25
2022-10-01T22:18:57.164Z,101376.41
2022-10-01T22:21:44.584Z,101363.00
2022-10-01T22:24:16.159Z,101367.25
2022-10-01T22:26:53.770Z,101370.53
2022-10-01T22:29:29.355Z,101382.50
2022-10-01T22:32:03.122Z,101383.38
2022-10-01T22:34:37.634Z,101384.38
2022-10-01T22:37:23.220Z,101384.38
2022-10-01T22:39:58.321Z,101381.63
2022-10-01T22:42:30.378Z,101375.47
2022-10-01T22:45:03.933Z,101378.75
2022-10-01T22:47:30.362Z,101384.22
2022-10-01T22:50:15.735Z,101386.97
2022-10-01T22:53:07.230Z,101383.03
2022-10-01T22:55:54.693Z,101391.84
2022-10-01T22:58:57.582Z,101386.50
2022-10-01T23:01:39.742Z,101385.91
2022-10-01T23:04:21.339Z,101383.56
2022-10-01T23:07:11.227Z,101390.28
2022-10-01T23:09:43.768Z,101393.72
2022-10-01T23:12:31.669Z,101397.88
2022-10-01T23:15:08.024Z,101395.31
2022-10-01T23:17:43.790Z,101397.16
2022-10-01T23:20:20.595Z,101425.97
2022-10-01T23:23:01.215Z,101451.44
2022-10-01T23:26:04.637Z,101442.56
2022-10-01T23:28:39.188Z,101437.50
2022-10-01T23:31:29.134Z,101444.63
2022-10-01T23:34:20.228Z,101443.16
2022-10-01T23:36:52.834Z,101445.97
2022-10-01T23:39:37.550Z,101440.03
2022-10-01T23:42:22.828Z,101438.66
2022-10-01T23:45:14.273Z,101438.50
2022-10-01T23:48:08.486Z,101433.56
2022-10-01T23:50:44.254Z,101434.13
2022-10-01T23:53:17.671Z,101429.19
2022-10-01T23:56:27.894Z,101430.34
2022-10-01T23:59:00.882Z,101438.66
